sensor_id;sensor_type;location;lat;lon;timestamp;P1;durP1;ratioP1;P2;durP2;ratioP2
4742;SDS011;24293;48.154;7.748;2023-11-21T00:02:21;13.63;;;2.10;;
4742;SDS011;24293;48.154;7.748;2023-11-21T00:04:48;8.20;;;1.73;;
4742;SDS011;24293;48.154;7.748;2023-11-21T00:07:15;12.90;;;2.23;;
4742;SDS011;24293;48.154;7.748;2023-11-21T00:09:42;7.13;;;1.67;;
4742;SDS011;24293;48.154;7.748;2023-11-21T00:12:09;14.37;;;2.67;;
4742;SDS011;24293;48.154;7.748;2023-11-21T00:14:36;8.80;;;2.07;;
4742;SDS011;24293;48.154;7.748;2023-11-21T00:17:03;7.40;;;2.20;;
4742;SDS011;24293;48.154;7.748;2023-11-21T00:19:30;11.30;;;2.30;;
4742;SDS011;24293;48.154;7.748;2023-11-21T00:21:57;9.87;;;2.20;;
4742;SDS011;24293;48.154;7.748;2023-11-21T00:24:24;5.43;;;1.60;;
4742;SDS011;24293;48.154;7.748;2023-11-21T00:26:52;14.40;;;2.10;;
4742;SDS011;24293;48.154;7.748;2023-11-21T00:29:19;13.47;;;2.80;;
4742;SDS011;24293;48.154;7.748;2023-11-21T00:31:45;11.00;;;1.73;;
4742;SDS011;24293;48.154;7.748;2023-11-21T00:34:12;5.80;;;1.80;;
4742;SDS011;24293;48.154;7.748;2023-11-21T00:36:39;6.83;;;2.07;;
4742;SDS011;24293;48.154;7.748;2023-11-21T00:39:06;9.10;;;1.87;;
4742;SDS011;24293;48.154;7.748;2023-11-21T00:41:33;5.43;;;1.30;;
4742;SDS011;24293;48.154;7.748;2023-11-21T00:44:03;11.40;;;2.23;;
4742;SDS011;24293;48.154;7.748;2023-11-21T00:46:29;3.83;;;1.30;;
4742;SDS011;24293;48.154;7.748;2023-11-21T00:48:56;20.80;;;2.40;;
4742;SDS011;24293;48.154;7.748;2023-11-21T00:51:22;11.40;;;1.70;;
4742;SDS011;24293;48.154;7.748;2023-11-21T00:53:49;4.90;;;1.80;;
4742;SDS011;24293;48.154;7.748;2023-11-21T00:56:16;5.20;;;1.50;;
4742;SDS011;24293;48.154;7.748;2023-11-21T00:58:42;7.10;;;1.87;;
4742;SDS011;24293;48.154;7.748;2023-11-21T01:01:15;10.43;;;1.73;;
4742;SDS011;24293;48.154;7.748;2023-11-21T01:03:42;6.73;;;1.77;;
4742;SDS011;24293;48.154;7.748;2023-11-21T01:06:08;7.13;;;1.60;;
4742;SDS011;24293;48.154;7.748;2023-11-21T01:08:35;7.97;;;1.20;;
4742;SDS011;24293;48.154;7.748;2023-11-21T01:11:01;4.10;;;2.00;;
4742;SDS011;24293;48.154;7.748;2023-11-21T01:13:28;8.47;;;1.90;;
4742;SDS011;24293;48.154;7.748;2023-11-21T01:15:55;6.73;;;1.20;;
4742;SDS011;24293;48.154;7.748;2023-11-21T01:18:23;4.03;;;1.60;;
4742;SDS011;24293;48.154;7.748;2023-11-21T01:20:50;8.53;;;1.70;;
4742;SDS011;24293;48.154;7.748;2023-11-21T01:23:18;7.63;;;2.00;;
4742;SDS011;24293;48.154;7.748;2023-11-21T01:25:44;5.73;;;1.50;;
4742;SDS011;24293;48.154;7.748;2023-11-21T01:28:11;9.30;;;1.40;;
4742;SDS011;24293;48.154;7.748;2023-11-21T01:30:37;4.90;;;1.30;;
4742;SDS011;24293;48.154;7.748;2023-11-21T01:33:04;7.00;;;1.23;;
4742;SDS011;24293;48.154;7.748;2023-11-21T01:35:32;7.27;;;1.63;;
4742;SDS011;24293;48.154;7.748;2023-11-21T01:37:59;5.07;;;1.27;;
4742;SDS011;24293;48.154;7.748;2023-11-21T01:40:25;6.60;;;1.33;;
4742;SDS011;24293;48.154;7.748;2023-11-21T01:42:52;7.07;;;1.70;;
4742;SDS011;24293;48.154;7.748;2023-11-21T01:45:19;4.87;;;1.57;;
4742;SDS011;24293;48.154;7.748;2023-11-21T01:47:45;4.57;;;1.33;;
4742;SDS011;24293;48.154;7.748;2023-11-21T01:50:13;9.73;;;1.37;;
4742;SDS011;24293;48.154;7.748;2023-11-21T01:52:42;11.43;;;2.50;;
4742;SDS011;24293;48.154;7.748;2023-11-21T01:55:10;8.47;;;1.53;;
4742;SDS011;24293;48.154;7.748;2023-11-21T01:57:37;5.30;;;1.07;;
4742;SDS011;24293;48.154;7.748;2023-11-21T02:00:04;5.37;;;1.40;;
4742;SDS011;24293;48.154;7.748;2023-11-21T02:02:41;9.37;;;1.40;;
4742;SDS011;24293;48.154;7.748;2023-11-21T02:05:07;4.10;;;1.37;;
4742;SDS011;24293;48.154;7.748;2023-11-21T02:07:34;3.80;;;1.30;;
4742;SDS011;24293;48.154;7.748;2023-11-21T02:10:02;5.73;;;1.43;;
4742;SDS011;24293;48.154;7.748;2023-11-21T02:12:29;5.60;;;1.23;;
4742;SDS011;24293;48.154;7.748;2023-11-21T02:14:56;4.00;;;1.30;;
4742;SDS011;24293;48.154;7.748;2023-11-21T02:17:22;4.03;;;1.20;;
4742;SDS011;24293;48.154;7.748;2023-11-21T02:19:49;5.00;;;1.00;;
4742;SDS011;24293;48.154;7.748;2023-11-21T02:22:16;9.57;;;2.07;;
4742;SDS011;24293;48.154;7.748;2023-11-21T02:24:45;8.67;;;1.50;;
4742;SDS011;24293;48.154;7.748;2023-11-21T02:27:12;8.90;;;1.70;;
4742;SDS011;24293;48.154;7.748;2023-11-21T02:29:42;6.70;;;1.33;;
4742;SDS011;24293;48.154;7.748;2023-11-21T02:32:08;3.90;;;1.27;;
4742;SDS011;24293;48.154;7.748;2023-11-21T02:34:35;4.50;;;1.13;;
4742;SDS011;24293;48.154;7.748;2023-11-21T02:37:03;5.50;;;1.37;;
4742;SDS011;24293;48.154;7.748;2023-11-21T02:39:31;6.40;;;1.20;;
4742;SDS011;24293;48.154;7.748;2023-11-21T02:41:59;7.73;;;1.17;;
4742;SDS011;24293;48.154;7.748;2023-11-21T02:44:26;6.40;;;1.27;;
4742;SDS011;24293;48.154;7.748;2023-11-21T02:46:52;7.13;;;1.20;;
4742;SDS011;24293;48.154;7.748;2023-11-21T02:49:19;5.70;;;1.40;;
4742;SDS011;24293;48.154;7.748;2023-11-21T02:51:45;5.77;;;1.30;;
4742;SDS011;24293;48.154;7.748;2023-11-21T02:54:12;3.40;;;1.10;;
4742;SDS011;24293;48.154;7.748;2023-11-21T02:56:38;4.33;;;1.43;;
4742;SDS011;24293;48.154;7.748;2023-11-21T02:59:06;4.90;;;1.27;;
4742;SDS011;24293;48.154;7.748;2023-11-21T03:01:33;8.57;;;1.20;;
4742;SDS011;24293;48.154;7.748;2023-11-21T03:03:59;7.30;;;1.33;;
4742;SDS011;24293;48.154;7.748;2023-11-21T03:06:26;3.83;;;1.10;;
4742;SDS011;24293;48.154;7.748;2023-11-21T03:08:53;7.80;;;1.63;;
4742;SDS011;24293;48.154;7.748;2023-11-21T03:11:19;5.80;;;1.20;;
4742;SDS011;24293;48.154;7.748;2023-11-21T03:13:46;3.97;;;0.97;;
4742;SDS011;24293;48.154;7.748;2023-11-21T03:16:14;4.63;;;1.10;;
4742;SDS011;24293;48.154;7.748;2023-11-21T03:18:40;4.73;;;1.30;;
4742;SDS011;24293;48.154;7.748;2023-11-21T03:21:07;4.00;;;1.00;;
4742;SDS011;24293;48.154;7.748;2023-11-21T03:23:34;6.70;;;1.73;;
4742;SDS011;24293;48.154;7.748;2023-11-21T03:26:01;6.70;;;1.33;;
4742;SDS011;24293;48.154;7.748;2023-11-21T03:28:27;4.67;;;1.17;;
4742;SDS011;24293;48.154;7.748;2023-11-21T03:30:55;7.60;;;1.23;;
4742;SDS011;24293;48.154;7.748;2023-11-21T03:33:23;4.30;;;1.10;;
4742;SDS011;24293;48.154;7.748;2023-11-21T03:35:49;4.43;;;1.13;;
4742;SDS011;24293;48.154;7.748;2023-11-21T03:38:18;8.73;;;1.30;;
4742;SDS011;24293;48.154;7.748;2023-11-21T03:40:44;7.50;;;1.30;;
4742;SDS011;24293;48.154;7.748;2023-11-21T03:43:11;4.00;;;1.40;;
4742;SDS011;24293;48.154;7.748;2023-11-21T03:45:37;4.43;;;1.30;;
4742;SDS011;24293;48.154;7.748;2023-11-21T03:48:05;4.70;;;1.30;;
4742;SDS011;24293;48.154;7.748;2023-11-21T03:50:33;6.43;;;1.30;;
4742;SDS011;24293;48.154;7.748;2023-11-21T03:53:00;3.33;;;1.10;;
4742;SDS011;24293;48.154;7.748;2023-11-21T03:55:26;6.03;;;1.07;;
4742;SDS011;24293;48.154;7.748;2023-11-21T03:57:52;3.63;;;1.30;;
4742;SDS011;24293;48.154;7.748;2023-11-21T04:00:20;5.30;;;1.17;;
4742;SDS011;24293;48.154;7.748;2023-11-21T04:02:47;5.00;;;1.80;;
4742;SDS011;24293;48.154;7.748;2023-11-21T04:05:14;5.50;;;1.20;;
4742;SDS011;24293;48.154;7.748;2023-11-21T04:07:42;6.27;;;1.60;;
4742;SDS011;24293;48.154;7.748;2023-11-21T04:10:08;6.13;;;1.47;;
4742;SDS011;24293;48.154;7.748;2023-11-21T04:12:37;3.90;;;1.10;;
4742;SDS011;24293;48.154;7.748;2023-11-21T04:15:04;4.50;;;1.23;;
4742;SDS011;24293;48.154;7.748;2023-11-21T04:17:31;6.90;;;1.50;;
4742;SDS011;24293;48.154;7.748;2023-11-21T04:19:57;5.33;;;1.20;;
4742;SDS011;24293;48.154;7.748;2023-11-21T04:22:24;5.87;;;1.70;;
4742;SDS011;24293;48.154;7.748;2023-11-21T04:24:52;3.87;;;1.30;;
4742;SDS011;24293;48.154;7.748;2023-11-21T04:27:20;6.20;;;1.20;;
4742;SDS011;24293;48.154;7.748;2023-11-21T04:29:47;5.00;;;1.60;;
4742;SDS011;24293;48.154;7.748;2023-11-21T04:32:13;6.23;;;1.60;;
4742;SDS011;24293;48.154;7.748;2023-11-21T04:34:40;2.80;;;0.90;;
4742;SDS011;24293;48.154;7.748;2023-11-21T04:37:09;4.90;;;1.20;;
4742;SDS011;24293;48.154;7.748;2023-11-21T04:39:36;5.17;;;1.50;;
4742;SDS011;24293;48.154;7.748;2023-11-21T04:42:04;3.43;;;1.43;;
4742;SDS011;24293;48.154;7.748;2023-11-21T04:44:30;7.93;;;1.30;;
4742;SDS011;24293;48.154;7.748;2023-11-21T04:46:57;5.10;;;1.80;;
4742;SDS011;24293;48.154;7.748;2023-11-21T04:49:23;7.20;;;1.20;;
4742;SDS011;24293;48.154;7.748;2023-11-21T04:51:50;3.57;;;1.27;;
4742;SDS011;24293;48.154;7.748;2023-11-21T04:54:17;4.37;;;1.23;;
4742;SDS011;24293;48.154;7.748;2023-11-21T04:56:43;6.27;;;1.50;;
4742;SDS011;24293;48.154;7.748;2023-11-21T04:59:11;5.33;;;1.80;;
4742;SDS011;24293;48.154;7.748;2023-11-21T05:01:38;6.63;;;1.67;;
4742;SDS011;24293;48.154;7.748;2023-11-21T05:04:04;5.03;;;1.40;;
4742;SDS011;24293;48.154;7.748;2023-11-21T05:06:31;4.37;;;1.40;;
4742;SDS011;24293;48.154;7.748;2023-11-21T05:08:57;6.03;;;1.10;;
4742;SDS011;24293;48.154;7.748;2023-11-21T05:11:24;4.73;;;1.10;;
4742;SDS011;24293;48.154;7.748;2023-11-21T05:13:51;4.00;;;1.20;;
4742;SDS011;24293;48.154;7.748;2023-11-21T05:16:19;4.30;;;1.10;;
4742;SDS011;24293;48.154;7.748;2023-11-21T05:18:46;11.17;;;4.70;;
4742;SDS011;24293;48.154;7.748;2023-11-21T05:21:12;13.00;;;5.80;;
4742;SDS011;24293;48.154;7.748;2023-11-21T05:23:38;5.00;;;1.03;;
4742;SDS011;24293;48.154;7.748;2023-11-21T05:26:05;2.60;;;1.00;;
4742;SDS011;24293;48.154;7.748;2023-11-21T05:28:32;7.53;;;1.20;;
4742;SDS011;24293;48.154;7.748;2023-11-21T05:30:59;3.20;;;1.20;;
4742;SDS011;24293;48.154;7.748;2023-11-21T05:33:26;7.23;;;1.30;;
4742;SDS011;24293;48.154;7.748;2023-11-21T05:35:53;4.23;;;1.37;;
4742;SDS011;24293;48.154;7.748;2023-11-21T05:38:19;5.57;;;1.23;;
4742;SDS011;24293;48.154;7.748;2023-11-21T05:40:47;5.23;;;1.17;;
4742;SDS011;24293;48.154;7.748;2023-11-21T05:43:13;11.80;;;1.53;;
4742;SDS011;24293;48.154;7.748;2023-11-21T05:45:40;4.37;;;2.00;;
4742;SDS011;24293;48.154;7.748;2023-11-21T05:48:07;6.93;;;1.50;;
4742;SDS011;24293;48.154;7.748;2023-11-21T05:50:34;6.23;;;2.30;;
4742;SDS011;24293;48.154;7.748;2023-11-21T05:53:02;4.57;;;1.50;;
4742;SDS011;24293;48.154;7.748;2023-11-21T05:55:29;8.77;;;2.20;;
4742;SDS011;24293;48.154;7.748;2023-11-21T05:57:56;7.50;;;2.17;;
4742;SDS011;24293;48.154;7.748;2023-11-21T06:00:22;9.90;;;2.07;;
4742;SDS011;24293;48.154;7.748;2023-11-21T06:02:50;4.30;;;1.90;;
4742;SDS011;24293;48.154;7.748;2023-11-21T06:05:18;11.30;;;2.77;;
4742;SDS011;24293;48.154;7.748;2023-11-21T06:07:46;7.70;;;2.40;;
4742;SDS011;24293;48.154;7.748;2023-11-21T06:10:12;12.23;;;3.23;;
4742;SDS011;24293;48.154;7.748;2023-11-21T06:12:39;8.03;;;5.00;;
4742;SDS011;24293;48.154;7.748;2023-11-21T06:15:08;4.73;;;2.27;;
4742;SDS011;24293;48.154;7.748;2023-11-21T06:17:34;6.60;;;1.50;;
4742;SDS011;24293;48.154;7.748;2023-11-21T06:20:02;5.20;;;1.67;;
4742;SDS011;24293;48.154;7.748;2023-11-21T06:22:34;8.10;;;2.13;;
4742;SDS011;24293;48.154;7.748;2023-11-21T06:25:02;5.23;;;1.60;;
4742;SDS011;24293;48.154;7.748;2023-11-21T06:27:31;2.70;;;1.13;;
4742;SDS011;24293;48.154;7.748;2023-11-21T06:29:57;5.73;;;1.40;;
4742;SDS011;24293;48.154;7.748;2023-11-21T06:32:23;6.73;;;1.70;;
4742;SDS011;24293;48.154;7.748;2023-11-21T06:34:51;10.63;;;1.43;;
4742;SDS011;24293;48.154;7.748;2023-11-21T06:37:19;4.23;;;1.43;;
4742;SDS011;24293;48.154;7.748;2023-11-21T06:39:46;4.73;;;1.57;;
4742;SDS011;24293;48.154;7.748;2023-11-21T06:42:14;6.63;;;1.63;;
4742;SDS011;24293;48.154;7.748;2023-11-21T06:44:41;4.27;;;1.57;;
4742;SDS011;24293;48.154;7.748;2023-11-21T06:47:07;6.87;;;1.70;;
4742;SDS011;24293;48.154;7.748;2023-11-21T06:49:34;4.90;;;1.70;;
4742;SDS011;24293;48.154;7.748;2023-11-21T06:52:01;4.07;;;1.70;;
4742;SDS011;24293;48.154;7.748;2023-11-21T06:54:27;5.47;;;1.60;;
4742;SDS011;24293;48.154;7.748;2023-11-21T06:56:54;4.83;;;1.63;;
4742;SDS011;24293;48.154;7.748;2023-11-21T06:59:23;8.77;;;1.63;;
4742;SDS011;24293;48.154;7.748;2023-11-21T07:01:50;7.10;;;2.23;;
4742;SDS011;24293;48.154;7.748;2023-11-21T07:04:16;7.97;;;1.93;;
4742;SDS011;24293;48.154;7.748;2023-11-21T07:06:43;9.90;;;2.30;;
4742;SDS011;24293;48.154;7.748;2023-11-21T07:09:10;9.00;;;2.07;;
4742;SDS011;24293;48.154;7.748;2023-11-21T07:11:37;6.50;;;2.10;;
4742;SDS011;24293;48.154;7.748;2023-11-21T07:14:04;4.30;;;1.67;;
4742;SDS011;24293;48.154;7.748;2023-11-21T07:16:34;6.57;;;3.10;;
4742;SDS011;24293;48.154;7.748;2023-11-21T07:19:02;5.50;;;2.00;;
4742;SDS011;24293;48.154;7.748;2023-11-21T07:21:31;6.07;;;3.07;;
4742;SDS011;24293;48.154;7.748;2023-11-21T07:23:57;4.37;;;1.80;;
4742;SDS011;24293;48.154;7.748;2023-11-21T07:26:24;5.50;;;2.20;;
4742;SDS011;24293;48.154;7.748;2023-11-21T07:28:51;7.40;;;1.77;;
4742;SDS011;24293;48.154;7.748;2023-11-21T07:31:18;5.97;;;2.30;;
4742;SDS011;24293;48.154;7.748;2023-11-21T07:33:47;6.87;;;2.07;;
4742;SDS011;24293;48.154;7.748;2023-11-21T07:36:13;6.50;;;2.63;;
4742;SDS011;24293;48.154;7.748;2023-11-21T07:38:40;5.83;;;1.87;;
4742;SDS011;24293;48.154;7.748;2023-11-21T07:41:06;6.23;;;1.80;;
4742;SDS011;24293;48.154;7.748;2023-11-21T07:43:34;4.97;;;2.23;;
4742;SDS011;24293;48.154;7.748;2023-11-21T07:46:00;9.20;;;2.00;;
4742;SDS011;24293;48.154;7.748;2023-11-21T07:48:28;5.50;;;2.27;;
4742;SDS011;24293;48.154;7.748;2023-11-21T07:50:55;5.90;;;2.03;;
4742;SDS011;24293;48.154;7.748;2023-11-21T07:53:22;4.63;;;1.97;;
4742;SDS011;24293;48.154;7.748;2023-11-21T07:55:48;7.50;;;2.57;;
4742;SDS011;24293;48.154;7.748;2023-11-21T07:58:15;5.20;;;2.10;;
4742;SDS011;24293;48.154;7.748;2023-11-21T08:00:41;10.30;;;2.30;;
4742;SDS011;24293;48.154;7.748;2023-11-21T08:03:08;5.37;;;2.00;;
4742;SDS011;24293;48.154;7.748;2023-11-21T08:05:34;4.50;;;2.63;;
4742;SDS011;24293;48.154;7.748;2023-11-21T08:08:02;7.00;;;2.00;;
4742;SDS011;24293;48.154;7.748;2023-11-21T08:10:29;9.43;;;2.70;;
4742;SDS011;24293;48.154;7.748;2023-11-21T08:12:55;4.40;;;1.70;;
4742;SDS011;24293;48.154;7.748;2023-11-21T08:15:22;6.80;;;2.17;;
4742;SDS011;24293;48.154;7.748;2023-11-21T08:17:48;5.40;;;2.10;;
4742;SDS011;24293;48.154;7.748;2023-11-21T08:20:17;5.83;;;2.20;;
4742;SDS011;24293;48.154;7.748;2023-11-21T08:22:47;8.03;;;2.47;;
4742;SDS011;24293;48.154;7.748;2023-11-21T08:25:15;4.20;;;2.00;;
4742;SDS011;24293;48.154;7.748;2023-11-21T08:27:44;14.53;;;2.53;;
4742;SDS011;24293;48.154;7.748;2023-11-21T08:30:11;4.03;;;2.13;;
4742;SDS011;24293;48.154;7.748;2023-11-21T08:32:39;6.87;;;2.27;;
4742;SDS011;24293;48.154;7.748;2023-11-21T08:35:07;5.60;;;2.50;;
4742;SDS011;24293;48.154;7.748;2023-11-21T08:37:33;4.57;;;2.23;;
4742;SDS011;24293;48.154;7.748;2023-11-21T08:40:02;4.53;;;2.20;;
4742;SDS011;24293;48.154;7.748;2023-11-21T08:42:30;5.30;;;2.00;;
4742;SDS011;24293;48.154;7.748;2023-11-21T08:44:57;7.30;;;2.13;;
4742;SDS011;24293;48.154;7.748;2023-11-21T08:47:24;8.70;;;2.47;;
4742;SDS011;24293;48.154;7.748;2023-11-21T08:49:51;37.80;;;4.50;;
4742;SDS011;24293;48.154;7.748;2023-11-21T08:52:18;27.27;;;3.17;;
4742;SDS011;24293;48.154;7.748;2023-11-21T08:54:46;11.70;;;2.80;;
4742;SDS011;24293;48.154;7.748;2023-11-21T08:57:12;10.53;;;2.43;;
4742;SDS011;24293;48.154;7.748;2023-11-21T08:59:40;6.53;;;1.83;;
4742;SDS011;24293;48.154;7.748;2023-11-21T09:02:07;14.13;;;2.80;;
4742;SDS011;24293;48.154;7.748;2023-11-21T09:04:34;8.53;;;1.70;;
4742;SDS011;24293;48.154;7.748;2023-11-21T09:07:00;3.87;;;2.00;;
4742;SDS011;24293;48.154;7.748;2023-11-21T09:09:26;5.83;;;2.30;;
4742;SDS011;24293;48.154;7.748;2023-11-21T09:11:53;6.43;;;1.87;;
4742;SDS011;24293;48.154;7.748;2023-11-21T09:14:20;5.13;;;1.97;;
4742;SDS011;24293;48.154;7.748;2023-11-21T09:16:48;7.93;;;1.80;;
4742;SDS011;24293;48.154;7.748;2023-11-21T09:19:15;4.47;;;2.00;;
4742;SDS011;24293;48.154;7.748;2023-11-21T09:21:42;3.77;;;1.90;;
4742;SDS011;24293;48.154;7.748;2023-11-21T09:24:09;5.70;;;2.00;;
4742;SDS011;24293;48.154;7.748;2023-11-21T09:26:35;6.73;;;2.37;;
4742;SDS011;24293;48.154;7.748;2023-11-21T09:29:01;5.23;;;2.70;;
4742;SDS011;24293;48.154;7.748;2023-11-21T09:31:28;9.40;;;2.60;;
4742;SDS011;24293;48.154;7.748;2023-11-21T09:33:57;5.37;;;2.27;;
4742;SDS011;24293;48.154;7.748;2023-11-21T09:36:24;7.37;;;3.00;;
4742;SDS011;24293;48.154;7.748;2023-11-21T09:38:52;4.73;;;2.17;;
4742;SDS011;24293;48.154;7.748;2023-11-21T09:41:21;6.03;;;2.03;;
4742;SDS011;24293;48.154;7.748;2023-11-21T09:43:47;3.77;;;1.90;;
4742;SDS011;24293;48.154;7.748;2023-11-21T09:46:17;4.47;;;2.20;;
4742;SDS011;24293;48.154;7.748;2023-11-21T09:48:47;8.17;;;2.10;;
4742;SDS011;24293;48.154;7.748;2023-11-21T09:51:18;5.30;;;2.30;;
4742;SDS011;24293;48.154;7.748;2023-11-21T09:53:46;6.70;;;2.17;;
4742;SDS011;24293;48.154;7.748;2023-11-21T09:56:13;5.50;;;2.20;;
4742;SDS011;24293;48.154;7.748;2023-11-21T09:58:44;6.77;;;2.40;;
4742;SDS011;24293;48.154;7.748;2023-11-21T10:01:10;6.57;;;2.23;;
4742;SDS011;24293;48.154;7.748;2023-11-21T10:03:37;9.50;;;2.27;;
4742;SDS011;24293;48.154;7.748;2023-11-21T10:06:04;9.03;;;2.40;;
4742;SDS011;24293;48.154;7.748;2023-11-21T10:08:32;9.03;;;2.90;;
4742;SDS011;24293;48.154;7.748;2023-11-21T10:10:59;6.77;;;2.90;;
4742;SDS011;24293;48.154;7.748;2023-11-21T10:13:26;4.73;;;2.60;;
4742;SDS011;24293;48.154;7.748;2023-11-21T10:15:55;4.50;;;2.40;;
4742;SDS011;24293;48.154;7.748;2023-11-21T10:18:25;7.30;;;2.03;;
4742;SDS011;24293;48.154;7.748;2023-11-21T10:20:52;4.20;;;1.90;;
4742;SDS011;24293;48.154;7.748;2023-11-21T10:23:19;6.23;;;2.40;;
4742;SDS011;24293;48.154;7.748;2023-11-21T10:25:48;10.00;;;2.60;;
4742;SDS011;24293;48.154;7.748;2023-11-21T10:28:16;4.60;;;2.37;;
4742;SDS011;24293;48.154;7.748;2023-11-21T10:30:44;5.13;;;2.30;;
4742;SDS011;24293;48.154;7.748;2023-11-21T10:33:11;7.07;;;2.70;;
4742;SDS011;24293;48.154;7.748;2023-11-21T10:35:44;5.80;;;2.50;;
4742;SDS011;24293;48.154;7.748;2023-11-21T10:38:16;6.00;;;2.40;;
4742;SDS011;24293;48.154;7.748;2023-11-21T10:40:43;6.57;;;2.20;;
4742;SDS011;24293;48.154;7.748;2023-11-21T10:43:13;14.50;;;2.50;;
4742;SDS011;24293;48.154;7.748;2023-11-21T10:45:40;6.50;;;2.50;;
4742;SDS011;24293;48.154;7.748;2023-11-21T10:48:07;7.50;;;2.40;;
4742;SDS011;24293;48.154;7.748;2023-11-21T10:50:34;10.73;;;2.80;;
4742;SDS011;24293;48.154;7.748;2023-11-21T10:53:01;6.17;;;2.00;;
4742;SDS011;24293;48.154;7.748;2023-11-21T10:55:28;8.43;;;2.50;;
4742;SDS011;24293;48.154;7.748;2023-11-21T10:57:57;5.80;;;2.00;;
4742;SDS011;24293;48.154;7.748;2023-11-21T11:00:25;9.10;;;2.10;;
4742;SDS011;24293;48.154;7.748;2023-11-21T11:02:53;6.07;;;1.27;;
4742;SDS011;24293;48.154;7.748;2023-11-21T11:05:21;5.03;;;1.33;;
4742;SDS011;24293;48.154;7.748;2023-11-21T11:07:50;2.53;;;1.00;;
4742;SDS011;24293;48.154;7.748;2023-11-21T11:10:19;3.50;;;1.10;;
4742;SDS011;24293;48.154;7.748;2023-11-21T11:12:48;3.97;;;1.40;;
4742;SDS011;24293;48.154;7.748;2023-11-21T11:15:15;3.60;;;0.93;;
4742;SDS011;24293;48.154;7.748;2023-11-21T11:17:43;2.50;;;1.10;;
4742;SDS011;24293;48.154;7.748;2023-11-21T11:20:11;3.13;;;1.13;;
4742;SDS011;24293;48.154;7.748;2023-11-21T11:22:40;6.90;;;1.00;;
4742;SDS011;24293;48.154;7.748;2023-11-21T11:25:30;3.00;;;1.23;;
4742;SDS011;24293;48.154;7.748;2023-11-21T11:28:02;2.80;;;1.33;;
4742;SDS011;24293;48.154;7.748;2023-11-21T11:30:35;3.17;;;1.43;;
4742;SDS011;24293;48.154;7.748;2023-11-21T11:33:07;4.40;;;1.53;;
4742;SDS011;24293;48.154;7.748;2023-11-21T11:35:38;4.20;;;1.67;;
4742;SDS011;24293;48.154;7.748;2023-11-21T11:38:08;4.00;;;1.83;;
4742;SDS011;24293;48.154;7.748;2023-11-21T11:40:39;3.17;;;1.13;;
4742;SDS011;24293;48.154;7.748;2023-11-21T11:43:06;5.10;;;1.43;;
4742;SDS011;24293;48.154;7.748;2023-11-21T11:45:32;10.07;;;1.53;;
4742;SDS011;24293;48.154;7.748;2023-11-21T11:48:00;3.10;;;1.40;;
4742;SDS011;24293;48.154;7.748;2023-11-21T11:50:28;2.77;;;1.20;;
4742;SDS011;24293;48.154;7.748;2023-11-21T11:52:57;4.73;;;1.43;;
4742;SDS011;24293;48.154;7.748;2023-11-21T11:55:37;14.03;;;2.27;;
4742;SDS011;24293;48.154;7.748;2023-11-21T11:58:05;3.43;;;1.67;;
4742;SDS011;24293;48.154;7.748;2023-11-21T12:00:33;6.20;;;1.90;;
4742;SDS011;24293;48.154;7.748;2023-11-21T12:03:01;2.83;;;1.07;;
4742;SDS011;24293;48.154;7.748;2023-11-21T12:05:30;3.80;;;1.67;;
4742;SDS011;24293;48.154;7.748;2023-11-21T12:07:59;9.97;;;1.67;;
4742;SDS011;24293;48.154;7.748;2023-11-21T12:10:26;4.40;;;1.33;;
4742;SDS011;24293;48.154;7.748;2023-11-21T12:12:54;2.93;;;1.27;;
4742;SDS011;24293;48.154;7.748;2023-11-21T12:15:21;3.70;;;1.27;;
4742;SDS011;24293;48.154;7.748;2023-11-21T12:17:48;2.43;;;1.10;;
4742;SDS011;24293;48.154;7.748;2023-11-21T12:20:16;14.63;;;6.80;;
4742;SDS011;24293;48.154;7.748;2023-11-21T12:22:46;5.03;;;2.60;;
4742;SDS011;24293;48.154;7.748;2023-11-21T12:25:15;5.33;;;1.80;;
4742;SDS011;24293;48.154;7.748;2023-11-21T12:27:43;5.23;;;2.37;;
4742;SDS011;24293;48.154;7.748;2023-11-21T12:30:11;3.83;;;1.70;;
4742;SDS011;24293;48.154;7.748;2023-11-21T12:32:40;3.47;;;1.73;;
4742;SDS011;24293;48.154;7.748;2023-11-21T12:35:08;12.40;;;2.27;;
4742;SDS011;24293;48.154;7.748;2023-11-21T12:37:35;5.00;;;1.40;;
4742;SDS011;24293;48.154;7.748;2023-11-21T12:40:03;3.90;;;1.40;;
4742;SDS011;24293;48.154;7.748;2023-11-21T12:42:30;3.30;;;1.60;;
4742;SDS011;24293;48.154;7.748;2023-11-21T12:45:07;3.90;;;1.70;;
4742;SDS011;24293;48.154;7.748;2023-11-21T12:47:34;3.10;;;1.50;;
4742;SDS011;24293;48.154;7.748;2023-11-21T12:50:01;3.87;;;1.70;;
4742;SDS011;24293;48.154;7.748;2023-11-21T12:52:30;3.00;;;1.50;;
4742;SDS011;24293;48.154;7.748;2023-11-21T12:54:57;3.97;;;2.43;;
4742;SDS011;24293;48.154;7.748;2023-11-21T12:57:26;4.83;;;1.80;;
4742;SDS011;24293;48.154;7.748;2023-11-21T12:59:56;4.83;;;1.47;;
4742;SDS011;24293;48.154;7.748;2023-11-21T13:02:25;3.43;;;1.40;;
4742;SDS011;24293;48.154;7.748;2023-11-21T13:04:52;2.93;;;1.33;;
4742;SDS011;24293;48.154;7.748;2023-11-21T13:07:19;4.10;;;1.40;;
4742;SDS011;24293;48.154;7.748;2023-11-21T13:09:47;3.70;;;1.33;;
4742;SDS011;24293;48.154;7.748;2023-11-21T13:12:14;3.00;;;1.30;;
4742;SDS011;24293;48.154;7.748;2023-11-21T13:14:44;3.70;;;1.50;;
4742;SDS011;24293;48.154;7.748;2023-11-21T13:17:11;7.30;;;4.60;;
4742;SDS011;24293;48.154;7.748;2023-11-21T13:19:38;3.20;;;1.83;;
4742;SDS011;24293;48.154;7.748;2023-11-21T13:22:04;3.50;;;1.70;;
4742;SDS011;24293;48.154;7.748;2023-11-21T13:24:31;5.10;;;1.70;;
4742;SDS011;24293;48.154;7.748;2023-11-21T13:26:58;4.57;;;1.93;;
4742;SDS011;24293;48.154;7.748;2023-11-21T13:29:24;4.20;;;1.70;;
4742;SDS011;24293;48.154;7.748;2023-11-21T13:31:53;2.97;;;1.30;;
4742;SDS011;24293;48.154;7.748;2023-11-21T13:34:20;2.40;;;0.90;;
4742;SDS011;24293;48.154;7.748;2023-11-21T13:36:47;40.47;;;14.40;;
4742;SDS011;24293;48.154;7.748;2023-11-21T13:39:17;21.20;;;7.37;;
4742;SDS011;24293;48.154;7.748;2023-11-21T13:41:44;4.30;;;1.63;;
4742;SDS011;24293;48.154;7.748;2023-11-21T13:44:13;5.87;;;2.60;;
4742;SDS011;24293;48.154;7.748;2023-11-21T13:46:52;61.70;;;19.97;;
4742;SDS011;24293;48.154;7.748;2023-11-21T13:49:21;37.07;;;11.30;;
4742;SDS011;24293;48.154;7.748;2023-11-21T13:51:48;36.50;;;13.97;;
4742;SDS011;24293;48.154;7.748;2023-11-21T13:54:18;31.70;;;12.40;;
4742;SDS011;24293;48.154;7.748;2023-11-21T13:56:46;30.77;;;12.70;;
4742;SDS011;24293;48.154;7.748;2023-11-21T13:59:15;18.50;;;8.60;;
4742;SDS011;24293;48.154;7.748;2023-11-21T14:01:46;9.70;;;4.90;;
4742;SDS011;24293;48.154;7.748;2023-11-21T14:04:26;9.17;;;5.30;;
4742;SDS011;24293;48.154;7.748;2023-11-21T14:07:11;10.37;;;3.30;;
4742;SDS011;24293;48.154;7.748;2023-11-21T14:09:47;7.20;;;4.00;;
4742;SDS011;24293;48.154;7.748;2023-11-21T14:12:14;5.00;;;2.93;;
4742;SDS011;24293;48.154;7.748;2023-11-21T14:14:41;5.33;;;3.20;;
4742;SDS011;24293;48.154;7.748;2023-11-21T14:17:08;7.00;;;3.50;;
4742;SDS011;24293;48.154;7.748;2023-11-21T14:19:37;5.67;;;3.03;;
4742;SDS011;24293;48.154;7.748;2023-11-21T14:22:06;4.80;;;2.33;;
4742;SDS011;24293;48.154;7.748;2023-11-21T14:24:32;5.03;;;2.53;;
4742;SDS011;24293;48.154;7.748;2023-11-21T14:26:59;5.00;;;2.33;;
4742;SDS011;24293;48.154;7.748;2023-11-21T14:29:25;5.63;;;2.27;;
4742;SDS011;24293;48.154;7.748;2023-11-21T14:31:52;3.70;;;1.83;;
4742;SDS011;24293;48.154;7.748;2023-11-21T14:34:21;5.10;;;2.20;;
4742;SDS011;24293;48.154;7.748;2023-11-21T14:36:49;5.63;;;2.63;;
4742;SDS011;24293;48.154;7.748;2023-11-21T14:39:16;4.40;;;2.10;;
4742;SDS011;24293;48.154;7.748;2023-11-21T14:41:48;4.80;;;2.40;;
4742;SDS011;24293;48.154;7.748;2023-11-21T14:44:14;4.27;;;2.30;;
4742;SDS011;24293;48.154;7.748;2023-11-21T14:46:41;4.07;;;2.27;;
4742;SDS011;24293;48.154;7.748;2023-11-21T14:49:11;5.33;;;2.20;;
4742;SDS011;24293;48.154;7.748;2023-11-21T14:51:44;6.27;;;2.90;;
4742;SDS011;24293;48.154;7.748;2023-11-21T14:54:26;6.10;;;3.30;;
4742;SDS011;24293;48.154;7.748;2023-11-21T14:57:05;4.10;;;2.20;;
4742;SDS011;24293;48.154;7.748;2023-11-21T14:59:35;8.97;;;3.90;;
4742;SDS011;24293;48.154;7.748;2023-11-21T15:02:01;17.30;;;7.47;;
4742;SDS011;24293;48.154;7.748;2023-11-21T15:04:40;16.37;;;7.50;;